sensor_id;sensor_type;location;lat;lon;timestamp;P1;durP1;ratioP1;P2;durP2;ratioP2
77876;SDS011;67251;50.844;7.978;2023-07-02T00:00:24;5.47;;;2.90;;
77876;SDS011;67251;50.844;7.978;2023-07-02T00:02:50;5.28;;;2.28;;
77876;SDS011;67251;50.844;7.978;2023-07-02T00:05:15;4.82;;;2.78;;
77876;SDS011;67251;50.844;7.978;2023-07-02T00:07:42;4.60;;;2.35;;
77876;SDS011;67251;50.844;7.978;2023-07-02T00:10:08;5.43;;;2.92;;
77876;SDS011;67251;50.844;7.978;2023-07-02T00:12:35;4.90;;;2.95;;
77876;SDS011;67251;50.844;7.978;2023-07-02T00:15:01;5.03;;;2.60;;
77876;SDS011;67251;50.844;7.978;2023-07-02T00:17:26;4.60;;;2.22;;
77876;SDS011;67251;50.844;7.978;2023-07-02T00:19:52;4.72;;;2.60;;
77876;SDS011;67251;50.844;7.978;2023-07-02T00:22:17;5.00;;;2.78;;
77876;SDS011;67251;50.844;7.978;2023-07-02T00:24:42;4.75;;;2.17;;
77876;SDS011;67251;50.844;7.978;2023-07-02T00:27:08;7.05;;;2.45;;
77876;SDS011;67251;50.844;7.978;2023-07-02T00:29:33;7.05;;;2.65;;
77876;SDS011;67251;50.844;7.978;2023-07-02T00:31:59;5.28;;;2.50;;
77876;SDS011;67251;50.844;7.978;2023-07-02T00:34:24;4.40;;;2.30;;
77876;SDS011;67251;50.844;7.978;2023-07-02T00:36:50;5.38;;;2.70;;
77876;SDS011;67251;50.844;7.978;2023-07-02T00:39:15;5.20;;;2.90;;
77876;SDS011;67251;50.844;7.978;2023-07-02T00:41:42;5.45;;;2.38;;
77876;SDS011;67251;50.844;7.978;2023-07-02T00:44:11;5.25;;;2.70;;
77876;SDS011;67251;50.844;7.978;2023-07-02T00:46:37;5.70;;;2.67;;
77876;SDS011;67251;50.844;7.978;2023-07-02T00:49:02;8.02;;;2.88;;
77876;SDS011;67251;50.844;7.978;2023-07-02T00:51:29;5.57;;;2.72;;
77876;SDS011;67251;50.844;7.978;2023-07-02T00:53:57;7.15;;;3.05;;
77876;SDS011;67251;50.844;7.978;2023-07-02T00:56:23;6.82;;;3.10;;
77876;SDS011;67251;50.844;7.978;2023-07-02T00:58:51;8.57;;;3.30;;
77876;SDS011;67251;50.844;7.978;2023-07-02T01:01:23;6.18;;;3.00;;
77876;SDS011;67251;50.844;7.978;2023-07-02T01:06:25;5.55;;;3.05;;
77876;SDS011;67251;50.844;7.978;2023-07-02T01:08:56;7.18;;;3.50;;
77876;SDS011;67251;50.844;7.978;2023-07-02T01:16:33;5.28;;;2.83;;
77876;SDS011;67251;50.844;7.978;2023-07-02T01:19:04;7.55;;;3.13;;
77876;SDS011;67251;50.844;7.978;2023-07-02T01:21:35;6.97;;;2.85;;
77876;SDS011;67251;50.844;7.978;2023-07-02T01:24:01;5.97;;;2.67;;
77876;SDS011;67251;50.844;7.978;2023-07-02T01:26:29;7.32;;;3.00;;
77876;SDS011;67251;50.844;7.978;2023-07-02T01:29:14;4.43;;;2.30;;
77876;SDS011;67251;50.844;7.978;2023-07-02T01:31:46;7.38;;;3.00;;
77876;SDS011;67251;50.844;7.978;2023-07-02T01:34:12;7.53;;;3.10;;
77876;SDS011;67251;50.844;7.978;2023-07-02T01:36:38;7.03;;;3.10;;
77876;SDS011;67251;50.844;7.978;2023-07-02T01:39:03;6.57;;;3.30;;
77876;SDS011;67251;50.844;7.978;2023-07-02T01:41:29;7.07;;;2.88;;
77876;SDS011;67251;50.844;7.978;2023-07-02T01:43:54;6.07;;;2.70;;
77876;SDS011;67251;50.844;7.978;2023-07-02T01:46:20;8.18;;;2.78;;
77876;SDS011;67251;50.844;7.978;2023-07-02T01:52:14;8.18;;;2.95;;
77876;SDS011;67251;50.844;7.978;2023-07-02T01:54:40;8.05;;;2.88;;
77876;SDS011;67251;50.844;7.978;2023-07-02T01:57:05;7.25;;;2.70;;
77876;SDS011;67251;50.844;7.978;2023-07-02T01:59:30;6.93;;;3.25;;
77876;SDS011;67251;50.844;7.978;2023-07-02T02:01:56;6.95;;;3.22;;
77876;SDS011;67251;50.844;7.978;2023-07-02T02:04:21;7.10;;;2.97;;
77876;SDS011;67251;50.844;7.978;2023-07-02T02:06:46;6.68;;;2.97;;
77876;SDS011;67251;50.844;7.978;2023-07-02T02:09:12;6.07;;;2.80;;
77876;SDS011;67251;50.844;7.978;2023-07-02T02:11:41;5.65;;;2.97;;
77876;SDS011;67251;50.844;7.978;2023-07-02T02:14:08;6.60;;;2.78;;
77876;SDS011;67251;50.844;7.978;2023-07-02T02:16:33;5.50;;;2.60;;
77876;SDS011;67251;50.844;7.978;2023-07-02T02:19:00;6.90;;;2.72;;
77876;SDS011;67251;50.844;7.978;2023-07-02T02:21:26;6.80;;;2.58;;
77876;SDS011;67251;50.844;7.978;2023-07-02T02:23:51;7.30;;;2.97;;
77876;SDS011;67251;50.844;7.978;2023-07-02T02:26:17;5.70;;;2.97;;
77876;SDS011;67251;50.844;7.978;2023-07-02T02:28:42;6.97;;;3.13;;
77876;SDS011;67251;50.844;7.978;2023-07-02T02:31:08;8.45;;;3.05;;
77876;SDS011;67251;50.844;7.978;2023-07-02T02:33:34;8.45;;;3.13;;
77876;SDS011;67251;50.844;7.978;2023-07-02T02:36:00;7.10;;;3.05;;
77876;SDS011;67251;50.844;7.978;2023-07-02T02:38:28;7.53;;;2.78;;
77876;SDS011;67251;50.844;7.978;2023-07-02T02:40:54;5.90;;;2.65;;
77876;SDS011;67251;50.844;7.978;2023-07-02T02:43:19;6.70;;;2.80;;
77876;SDS011;67251;50.844;7.978;2023-07-02T02:45:45;6.57;;;2.78;;
77876;SDS011;67251;50.844;7.978;2023-07-02T02:48:11;9.10;;;2.80;;
77876;SDS011;67251;50.844;7.978;2023-07-02T02:50:37;10.95;;;2.80;;
77876;SDS011;67251;50.844;7.978;2023-07-02T02:53:06;7.70;;;2.70;;
77876;SDS011;67251;50.844;7.978;2023-07-02T02:55:32;6.75;;;2.47;;
77876;SDS011;67251;50.844;7.978;2023-07-02T02:57:58;7.65;;;2.50;;
77876;SDS011;67251;50.844;7.978;2023-07-02T03:00:24;6.00;;;2.70;;
77876;SDS011;67251;50.844;7.978;2023-07-02T03:02:49;6.32;;;2.53;;
77876;SDS011;67251;50.844;7.978;2023-07-02T03:05:15;6.60;;;2.50;;
77876;SDS011;67251;50.844;7.978;2023-07-02T03:07:41;5.68;;;2.63;;
77876;SDS011;67251;50.844;7.978;2023-07-02T03:10:06;5.75;;;2.58;;
77876;SDS011;67251;50.844;7.978;2023-07-02T03:12:32;6.40;;;2.65;;
77876;SDS011;67251;50.844;7.978;2023-07-02T03:14:57;6.70;;;2.40;;
77876;SDS011;67251;50.844;7.978;2023-07-02T03:17:23;6.15;;;2.58;;
77876;SDS011;67251;50.844;7.978;2023-07-02T03:19:48;7.53;;;2.58;;
77876;SDS011;67251;50.844;7.978;2023-07-02T03:22:14;10.55;;;2.90;;
77876;SDS011;67251;50.844;7.978;2023-07-02T03:24:39;7.05;;;2.65;;
77876;SDS011;67251;50.844;7.978;2023-07-02T03:27:05;5.05;;;2.05;;
77876;SDS011;67251;50.844;7.978;2023-07-02T03:29:31;5.93;;;2.25;;
77876;SDS011;67251;50.844;7.978;2023-07-02T03:31:57;5.53;;;2.28;;
77876;SDS011;67251;50.844;7.978;2023-07-02T03:34:23;7.00;;;2.58;;
77876;SDS011;67251;50.844;7.978;2023-07-02T03:36:49;7.47;;;2.70;;
77876;SDS011;67251;50.844;7.978;2023-07-02T03:39:14;6.53;;;2.60;;
77876;SDS011;67251;50.844;7.978;2023-07-02T03:41:40;6.40;;;2.42;;
77876;SDS011;67251;50.844;7.978;2023-07-02T03:44:05;7.55;;;2.78;;
77876;SDS011;67251;50.844;7.978;2023-07-02T03:46:31;6.78;;;2.47;;
77876;SDS011;67251;50.844;7.978;2023-07-02T03:48:57;7.47;;;2.47;;
77876;SDS011;67251;50.844;7.978;2023-07-02T03:51:22;7.25;;;2.60;;
77876;SDS011;67251;50.844;7.978;2023-07-02T03:53:47;12.95;;;2.75;;
77876;SDS011;67251;50.844;7.978;2023-07-02T03:56:13;7.80;;;2.95;;
77876;SDS011;67251;50.844;7.978;2023-07-02T03:58:39;6.68;;;2.10;;
77876;SDS011;67251;50.844;7.978;2023-07-02T04:01:05;6.20;;;2.60;;
77876;SDS011;67251;50.844;7.978;2023-07-02T04:03:31;6.28;;;2.80;;
77876;SDS011;67251;50.844;7.978;2023-07-02T04:05:56;6.13;;;2.25;;
77876;SDS011;67251;50.844;7.978;2023-07-02T04:08:21;7.40;;;3.03;;
77876;SDS011;67251;50.844;7.978;2023-07-02T04:10:47;11.52;;;3.20;;
77876;SDS011;67251;50.844;7.978;2023-07-02T04:13:12;6.82;;;3.00;;
77876;SDS011;67251;50.844;7.978;2023-07-02T04:15:38;9.77;;;2.85;;
77876;SDS011;67251;50.844;7.978;2023-07-02T04:18:03;6.38;;;2.88;;
77876;SDS011;67251;50.844;7.978;2023-07-02T04:20:28;9.13;;;2.85;;
77876;SDS011;67251;50.844;7.978;2023-07-02T04:22:54;7.97;;;3.42;;
77876;SDS011;67251;50.844;7.978;2023-07-02T04:25:19;6.38;;;2.78;;
77876;SDS011;67251;50.844;7.978;2023-07-02T04:27:45;9.05;;;2.90;;
77876;SDS011;67251;50.844;7.978;2023-07-02T04:30:10;9.50;;;2.67;;
77876;SDS011;67251;50.844;7.978;2023-07-02T04:32:37;9.10;;;2.97;;
77876;SDS011;67251;50.844;7.978;2023-07-02T04:35:08;7.95;;;3.28;;
77876;SDS011;67251;50.844;7.978;2023-07-02T04:37:35;7.53;;;2.90;;
77876;SDS011;67251;50.844;7.978;2023-07-02T04:40:01;9.30;;;3.28;;
77876;SDS011;67251;50.844;7.978;2023-07-02T04:42:27;6.90;;;2.83;;
77876;SDS011;67251;50.844;7.978;2023-07-02T04:44:55;7.55;;;3.10;;
77876;SDS011;67251;50.844;7.978;2023-07-02T04:47:20;9.13;;;3.35;;
77876;SDS011;67251;50.844;7.978;2023-07-02T04:49:46;6.10;;;3.33;;
77876;SDS011;67251;50.844;7.978;2023-07-02T04:52:11;9.73;;;3.80;;
77876;SDS011;67251;50.844;7.978;2023-07-02T04:54:37;6.85;;;2.50;;
77876;SDS011;67251;50.844;7.978;2023-07-02T04:57:02;8.98;;;2.97;;
77876;SDS011;67251;50.844;7.978;2023-07-02T04:59:28;9.00;;;3.53;;
77876;SDS011;67251;50.844;7.978;2023-07-02T05:01:53;10.10;;;3.40;;
77876;SDS011;67251;50.844;7.978;2023-07-02T05:04:19;8.38;;;3.03;;
77876;SDS011;67251;50.844;7.978;2023-07-02T05:06:44;9.77;;;3.47;;
77876;SDS011;67251;50.844;7.978;2023-07-02T05:09:09;7.00;;;2.80;;
77876;SDS011;67251;50.844;7.978;2023-07-02T05:11:35;7.38;;;2.88;;
77876;SDS011;67251;50.844;7.978;2023-07-02T05:14:00;8.18;;;3.63;;
77876;SDS011;67251;50.844;7.978;2023-07-02T05:16:26;8.77;;;3.10;;
77876;SDS011;67251;50.844;7.978;2023-07-02T05:18:51;7.07;;;3.10;;
77876;SDS011;67251;50.844;7.978;2023-07-02T05:21:19;12.52;;;4.43;;
77876;SDS011;67251;50.844;7.978;2023-07-02T05:23:45;9.85;;;3.35;;
77876;SDS011;67251;50.844;7.978;2023-07-02T05:26:10;9.05;;;3.53;;
77876;SDS011;67251;50.844;7.978;2023-07-02T05:28:36;9.43;;;3.72;;
77876;SDS011;67251;50.844;7.978;2023-07-02T05:31:01;9.75;;;3.28;;
77876;SDS011;67251;50.844;7.978;2023-07-02T05:33:27;8.10;;;3.30;;
77876;SDS011;67251;50.844;7.978;2023-07-02T05:35:52;12.05;;;3.55;;
77876;SDS011;67251;50.844;7.978;2023-07-02T05:38:18;9.77;;;3.60;;
77876;SDS011;67251;50.844;7.978;2023-07-02T05:40:44;11.27;;;3.95;;
77876;SDS011;67251;50.844;7.978;2023-07-02T05:43:10;9.23;;;3.67;;
77876;SDS011;67251;50.844;7.978;2023-07-02T05:45:35;10.98;;;3.72;;
77876;SDS011;67251;50.844;7.978;2023-07-02T05:48:01;11.98;;;3.95;;
77876;SDS011;67251;50.844;7.978;2023-07-02T05:50:26;11.55;;;4.28;;
77876;SDS011;67251;50.844;7.978;2023-07-02T05:52:52;12.25;;;4.25;;
77876;SDS011;67251;50.844;7.978;2023-07-02T05:55:17;12.25;;;3.92;;
77876;SDS011;67251;50.844;7.978;2023-07-02T05:57:42;10.65;;;4.13;;
77876;SDS011;67251;50.844;7.978;2023-07-02T06:00:08;12.27;;;4.28;;
77876;SDS011;67251;50.844;7.978;2023-07-02T06:02:33;9.57;;;3.80;;
77876;SDS011;67251;50.844;7.978;2023-07-02T06:04:59;11.13;;;4.60;;
77876;SDS011;67251;50.844;7.978;2023-07-02T06:07:26;13.10;;;4.30;;
77876;SDS011;67251;50.844;7.978;2023-07-02T06:09:52;12.07;;;4.38;;
77876;SDS011;67251;50.844;7.978;2023-07-02T06:12:17;12.48;;;4.70;;
77876;SDS011;67251;50.844;7.978;2023-07-02T06:14:42;11.32;;;4.03;;
77876;SDS011;67251;50.844;7.978;2023-07-02T06:17:08;10.50;;;4.72;;
77876;SDS011;67251;50.844;7.978;2023-07-02T06:19:34;11.82;;;4.32;;
77876;SDS011;67251;50.844;7.978;2023-07-02T06:22:00;11.48;;;5.68;;
77876;SDS011;67251;50.844;7.978;2023-07-02T06:24:25;13.68;;;4.95;;
77876;SDS011;67251;50.844;7.978;2023-07-02T06:26:51;14.45;;;5.63;;
77876;SDS011;67251;50.844;7.978;2023-07-02T06:29:16;14.77;;;4.88;;
77876;SDS011;67251;50.844;7.978;2023-07-02T06:31:42;12.18;;;5.15;;
77876;SDS011;67251;50.844;7.978;2023-07-02T06:34:07;13.00;;;4.90;;
77876;SDS011;67251;50.844;7.978;2023-07-02T06:36:33;12.98;;;4.70;;
77876;SDS011;67251;50.844;7.978;2023-07-02T06:39:01;15.98;;;6.43;;
77876;SDS011;67251;50.844;7.978;2023-07-02T06:41:27;11.13;;;5.10;;
77876;SDS011;67251;50.844;7.978;2023-07-02T06:43:52;13.13;;;5.55;;
77876;SDS011;67251;50.844;7.978;2023-07-02T06:46:19;17.65;;;6.13;;
77876;SDS011;67251;50.844;7.978;2023-07-02T06:48:44;14.13;;;5.75;;
77876;SDS011;67251;50.844;7.978;2023-07-02T06:51:10;12.30;;;4.93;;
77876;SDS011;67251;50.844;7.978;2023-07-02T06:53:37;14.48;;;5.72;;
77876;SDS011;67251;50.844;7.978;2023-07-02T06:56:02;17.83;;;6.25;;
77876;SDS011;67251;50.844;7.978;2023-07-02T06:58:28;14.60;;;6.18;;
77876;SDS011;67251;50.844;7.978;2023-07-02T07:00:53;12.75;;;5.68;;
77876;SDS011;67251;50.844;7.978;2023-07-02T07:03:19;12.68;;;5.72;;
77876;SDS011;67251;50.844;7.978;2023-07-02T07:05:44;17.08;;;6.05;;
77876;SDS011;67251;50.844;7.978;2023-07-02T07:08:09;15.63;;;5.93;;
77876;SDS011;67251;50.844;7.978;2023-07-02T07:10:35;19.08;;;6.22;;
77876;SDS011;67251;50.844;7.978;2023-07-02T07:13:03;14.60;;;6.20;;
77876;SDS011;67251;50.844;7.978;2023-07-02T07:15:30;20.80;;;6.80;;
77876;SDS011;67251;50.844;7.978;2023-07-02T07:17:58;18.75;;;6.53;;
77876;SDS011;67251;50.844;7.978;2023-07-02T07:20:24;17.98;;;7.72;;
77876;SDS011;67251;50.844;7.978;2023-07-02T07:22:49;20.30;;;8.00;;
77876;SDS011;67251;50.844;7.978;2023-07-02T07:25:14;18.40;;;7.35;;
77876;SDS011;67251;50.844;7.978;2023-07-02T07:27:40;18.20;;;7.40;;
77876;SDS011;67251;50.844;7.978;2023-07-02T07:30:05;18.75;;;7.63;;
77876;SDS011;67251;50.844;7.978;2023-07-02T07:32:31;19.48;;;8.63;;
77876;SDS011;67251;50.844;7.978;2023-07-02T07:34:57;20.45;;;9.13;;
77876;SDS011;67251;50.844;7.978;2023-07-02T07:37:22;20.13;;;8.95;;
77876;SDS011;67251;50.844;7.978;2023-07-02T07:39:47;20.88;;;8.55;;
77876;SDS011;67251;50.844;7.978;2023-07-02T07:42:14;20.70;;;8.55;;
77876;SDS011;67251;50.844;7.978;2023-07-02T07:44:40;23.35;;;8.75;;
77876;SDS011;67251;50.844;7.978;2023-07-02T07:47:05;18.67;;;8.30;;
77876;SDS011;67251;50.844;7.978;2023-07-02T07:49:31;24.38;;;9.23;;
77876;SDS011;67251;50.844;7.978;2023-07-02T07:51:56;20.75;;;8.18;;
77876;SDS011;67251;50.844;7.978;2023-07-02T07:54:21;24.17;;;9.65;;
77876;SDS011;67251;50.844;7.978;2023-07-02T07:56:47;20.40;;;9.32;;
77876;SDS011;67251;50.844;7.978;2023-07-02T07:59:12;21.52;;;8.73;;
77876;SDS011;67251;50.844;7.978;2023-07-02T08:01:39;23.42;;;10.55;;
77876;SDS011;67251;50.844;7.978;2023-07-02T08:04:05;17.80;;;9.20;;
77876;SDS011;67251;50.844;7.978;2023-07-02T08:06:30;20.38;;;9.27;;
77876;SDS011;67251;50.844;7.978;2023-07-02T08:08:56;21.58;;;10.25;;
77876;SDS011;67251;50.844;7.978;2023-07-02T08:11:23;20.90;;;10.35;;
77876;SDS011;67251;50.844;7.978;2023-07-02T08:13:48;20.33;;;10.05;;
77876;SDS011;67251;50.844;7.978;2023-07-02T08:16:16;17.70;;;8.65;;
77876;SDS011;67251;50.844;7.978;2023-07-02T08:18:41;20.58;;;9.23;;
77876;SDS011;67251;50.844;7.978;2023-07-02T08:21:06;20.17;;;8.95;;
77876;SDS011;67251;50.844;7.978;2023-07-02T08:23:32;21.48;;;8.50;;
77876;SDS011;67251;50.844;7.978;2023-07-02T08:25:58;23.08;;;9.45;;
77876;SDS011;67251;50.844;7.978;2023-07-02T08:28:23;21.35;;;9.38;;
77876;SDS011;67251;50.844;7.978;2023-07-02T08:30:49;20.15;;;9.70;;
77876;SDS011;67251;50.844;7.978;2023-07-02T08:33:14;19.48;;;8.52;;
77876;SDS011;67251;50.844;7.978;2023-07-02T08:35:39;20.60;;;9.60;;
77876;SDS011;67251;50.844;7.978;2023-07-02T08:38:05;20.80;;;8.77;;
77876;SDS011;67251;50.844;7.978;2023-07-02T08:40:30;23.63;;;10.15;;
77876;SDS011;67251;50.844;7.978;2023-07-02T08:42:56;26.92;;;10.60;;
77876;SDS011;67251;50.844;7.978;2023-07-02T08:45:22;18.95;;;8.88;;
77876;SDS011;67251;50.844;7.978;2023-07-02T08:47:51;21.77;;;8.68;;
77876;SDS011;67251;50.844;7.978;2023-07-02T08:50:18;22.00;;;8.43;;
77876;SDS011;67251;50.844;7.978;2023-07-02T08:52:44;19.23;;;8.50;;
77876;SDS011;67251;50.844;7.978;2023-07-02T08:55:10;19.02;;;7.88;;
77876;SDS011;67251;50.844;7.978;2023-07-02T08:57:35;18.70;;;8.10;;
77876;SDS011;67251;50.844;7.978;2023-07-02T09:00:03;20.88;;;9.60;;
77876;SDS011;67251;50.844;7.978;2023-07-02T09:02:33;20.05;;;9.05;;
77876;SDS011;67251;50.844;7.978;2023-07-02T09:04:59;22.60;;;8.10;;
77876;SDS011;67251;50.844;7.978;2023-07-02T09:07:25;22.67;;;8.85;;
77876;SDS011;67251;50.844;7.978;2023-07-02T09:09:51;16.98;;;7.05;;
77876;SDS011;67251;50.844;7.978;2023-07-02T09:12:26;22.75;;;8.57;;
77876;SDS011;67251;50.844;7.978;2023-07-02T09:14:56;21.63;;;7.90;;
77876;SDS011;67251;50.844;7.978;2023-07-02T09:17:27;22.50;;;8.95;;
77876;SDS011;67251;50.844;7.978;2023-07-02T09:19:57;18.92;;;8.18;;
77876;SDS011;67251;50.844;7.978;2023-07-02T09:24:52;17.27;;;7.13;;
77876;SDS011;67251;50.844;7.978;2023-07-02T09:27:19;16.05;;;7.75;;
77876;SDS011;67251;50.844;7.978;2023-07-02T09:29:49;17.83;;;7.13;;
77876;SDS011;67251;50.844;7.978;2023-07-02T09:32:23;18.35;;;8.57;;
77876;SDS011;67251;50.844;7.978;2023-07-02T09:34:50;18.20;;;8.43;;
77876;SDS011;67251;50.844;7.978;2023-07-02T09:37:15;21.70;;;7.82;;
77876;SDS011;67251;50.844;7.978;2023-07-02T09:39:41;18.48;;;7.88;;
77876;SDS011;67251;50.844;7.978;2023-07-02T09:42:13;16.98;;;7.03;;
77876;SDS011;67251;50.844;7.978;2023-07-02T09:44:41;16.92;;;7.93;;
77876;SDS011;67251;50.844;7.978;2023-07-02T09:47:08;17.45;;;7.50;;
77876;SDS011;67251;50.844;7.978;2023-07-02T09:49:36;16.35;;;6.97;;
77876;SDS011;67251;50.844;7.978;2023-07-02T09:52:03;16.45;;;6.53;;
77876;SDS011;67251;50.844;7.978;2023-07-02T09:54:30;19.98;;;7.05;;
77876;SDS011;67251;50.844;7.978;2023-07-02T09:56:56;18.17;;;6.88;;
77876;SDS011;67251;50.844;7.978;2023-07-02T09:59:23;16.35;;;8.13;;
77876;SDS011;67251;50.844;7.978;2023-07-02T10:01:49;13.38;;;6.75;;
77876;SDS011;67251;50.844;7.978;2023-07-02T10:04:15;17.70;;;7.82;;
77876;SDS011;67251;50.844;7.978;2023-07-02T10:06:46;16.70;;;6.72;;
77876;SDS011;67251;50.844;7.978;2023-07-02T10:14:53;16.40;;;7.40;;
77876;SDS011;67251;50.844;7.978;2023-07-02T10:17:26;16.45;;;8.07;;
77876;SDS011;67251;50.844;7.978;2023-07-02T10:19:56;15.15;;;7.10;;
77876;SDS011;67251;50.844;7.978;2023-07-02T10:22:42;15.73;;;6.22;;
77876;SDS011;67251;50.844;7.978;2023-07-02T10:25:28;16.75;;;7.35;;
77876;SDS011;67251;50.844;7.978;2023-07-02T10:30:35;15.25;;;6.55;;
77876;SDS011;67251;50.844;7.978;2023-07-02T10:33:11;21.10;;;7.68;;
77876;SDS011;67251;50.844;7.978;2023-07-02T10:35:41;16.25;;;7.18;;
77876;SDS011;67251;50.844;7.978;2023-07-02T10:40:57;18.90;;;7.30;;
77876;SDS011;67251;50.844;7.978;2023-07-02T10:43:28;14.90;;;7.00;;
77876;SDS011;67251;50.844;7.978;2023-07-02T10:45:55;15.68;;;7.25;;
77876;SDS011;67251;50.844;7.978;2023-07-02T10:48:21;15.32;;;6.63;;
77876;SDS011;67251;50.844;7.978;2023-07-02T10:50:46;19.05;;;7.63;;
77876;SDS011;67251;50.844;7.978;2023-07-02T10:53:15;16.10;;;6.75;;
77876;SDS011;67251;50.844;7.978;2023-07-02T10:55:41;17.33;;;6.60;;
77876;SDS011;67251;50.844;7.978;2023-07-02T10:58:08;19.50;;;6.95;;
77876;SDS011;67251;50.844;7.978;2023-07-02T11:00:47;17.80;;;7.82;;
77876;SDS011;67251;50.844;7.978;2023-07-02T11:05:50;15.43;;;6.68;;
77876;SDS011;67251;50.844;7.978;2023-07-02T11:08:16;18.27;;;7.10;;
77876;SDS011;67251;50.844;7.978;2023-07-02T11:10:42;18.30;;;7.05;;
77876;SDS011;67251;50.844;7.978;2023-07-02T11:13:15;16.67;;;6.65;;
77876;SDS011;67251;50.844;7.978;2023-07-02T11:15:40;17.83;;;7.15;;
77876;SDS011;67251;50.844;7.978;2023-07-02T11:18:10;14.63;;;6.90;;
77876;SDS011;67251;50.844;7.978;2023-07-02T11:20:36;19.20;;;7.95;;
77876;SDS011;67251;50.844;7.978;2023-07-02T11:23:02;18.13;;;7.60;;
77876;SDS011;67251;50.844;7.978;2023-07-02T11:25:27;18.25;;;6.97;;
77876;SDS011;67251;50.844;7.978;2023-07-02T11:28:02;17.40;;;7.15;;
77876;SDS011;67251;50.844;7.978;2023-07-02T11:30:28;15.25;;;7.00;;
77876;SDS011;67251;50.844;7.978;2023-07-02T11:32:54;19.33;;;6.80;;
77876;SDS011;67251;50.844;7.978;2023-07-02T11:35:20;15.70;;;6.95;;
77876;SDS011;67251;50.844;7.978;2023-07-02T11:37:47;14.80;;;6.50;;
77876;SDS011;67251;50.844;7.978;2023-07-02T11:40:14;18.30;;;7.35;;
77876;SDS011;67251;50.844;7.978;2023-07-02T11:42:40;18.42;;;7.07;;
77876;SDS011;67251;50.844;7.978;2023-07-02T11:45:05;14.90;;;6.25;;
77876;SDS011;67251;50.844;7.978;2023-07-02T11:47:31;16.85;;;6.93;;
77876;SDS011;67251;50.844;7.978;2023-07-02T11:49:57;19.67;;;8.40;;
77876;SDS011;67251;50.844;7.978;2023-07-02T11:52:24;15.45;;;7.10;;
77876;SDS011;67251;50.844;7.978;2023-07-02T11:54:50;17.60;;;7.07;;
77876;SDS011;67251;50.844;7.978;2023-07-02T11:57:15;18.83;;;7.05;;
77876;SDS011;67251;50.844;7.978;2023-07-02T11:59:41;17.58;;;7.18;;
77876;SDS011;67251;50.844;7.978;2023-07-02T12:02:07;18.35;;;6.75;;
77876;SDS011;67251;50.844;7.978;2023-07-02T12:04:32;16.35;;;7.30;;
77876;SDS011;67251;50.844;7.978;2023-07-02T12:06:58;16.63;;;7.30;;
77876;SDS011;67251;50.844;7.978;2023-07-02T12:09:23;18.13;;;7.97;;
77876;SDS011;67251;50.844;7.978;2023-07-02T12:11:48;16.13;;;6.93;;
77876;SDS011;67251;50.844;7.978;2023-07-02T12:14:14;18.70;;;7.65;;
77876;SDS011;67251;50.844;7.978;2023-07-02T12:16:39;16.15;;;6.63;;
77876;SDS011;67251;50.844;7.978;2023-07-02T12:19:05;17.00;;;6.93;;
77876;SDS011;67251;50.844;7.978;2023-07-02T12:21:30;17.13;;;7.60;;
77876;SDS011;67251;50.844;7.978;2023-07-02T12:23:56;17.50;;;7.35;;
77876;SDS011;67251;50.844;7.978;2023-07-02T12:26:22;17.15;;;7.18;;
77876;SDS011;67251;50.844;7.978;2023-07-02T12:28:47;18.45;;;6.88;;
77876;SDS011;67251;50.844;7.978;2023-07-02T12:31:12;15.10;;;7.10;;
77876;SDS011;67251;50.844;7.978;2023-07-02T12:33:38;16.75;;;7.60;;
77876;SDS011;67251;50.844;7.978;2023-07-02T12:36:04;13.73;;;6.68;;
77876;SDS011;67251;50.844;7.978;2023-07-02T12:38:30;13.15;;;6.20;;
77876;SDS011;67251;50.844;7.978;2023-07-02T12:40:55;13.25;;;6.32;;
77876;SDS011;67251;50.844;7.978;2023-07-02T12:43:20;14.45;;;6.50;;
77876;SDS011;67251;50.844;7.978;2023-07-02T12:45:46;15.93;;;6.50;;
77876;SDS011;67251;50.844;7.978;2023-07-02T12:48:12;14.70;;;6.45;;
77876;SDS011;67251;50.844;7.978;2023-07-02T12:50:38;15.93;;;6.22;;
77876;SDS011;67251;50.844;7.978;2023-07-02T12:53:04;15.07;;;6.13;;
77876;SDS011;67251;50.844;7.978;2023-07-02T12:55:30;16.85;;;6.55;;
77876;SDS011;67251;50.844;7.978;2023-07-02T12:57:55;14.35;;;6.78;;
77876;SDS011;67251;50.844;7.978;2023-07-02T13:00:21;19.73;;;7.20;;
77876;SDS011;67251;50.844;7.978;2023-07-02T13:02:46;16.23;;;6.38;;
77876;SDS011;67251;50.844;7.978;2023-07-02T13:05:12;16.92;;;7.32;;
77876;SDS011;67251;50.844;7.978;2023-07-02T13:07:38;14.27;;;6.43;;
77876;SDS011;67251;50.844;7.978;2023-07-02T13:10:03;18.45;;;6.80;;
77876;SDS011;67251;50.844;7.978;2023-07-02T13:12:29;16.83;;;6.53;;
77876;SDS011;67251;50.844;7.978;2023-07-02T13:14:55;18.80;;;6.80;;
77876;SDS011;67251;50.844;7.978;2023-07-02T13:17:20;15.70;;;6.32;;
77876;SDS011;67251;50.844;7.978;2023-07-02T13:19:45;13.27;;;7.07;;
77876;SDS011;67251;50.844;7.978;2023-07-02T13:22:13;14.23;;;5.47;;
77876;SDS011;67251;50.844;7.978;2023-07-02T13:24:38;14.95;;;6.25;;
77876;SDS011;67251;50.844;7.978;2023-07-02T13:27:07;15.82;;;6.47;;
77876;SDS011;67251;50.844;7.978;2023-07-02T13:29:36;15.25;;;6.45;;
77876;SDS011;67251;50.844;7.978;2023-07-02T13:32:01;16.60;;;6.75;;
77876;SDS011;67251;50.844;7.978;2023-07-02T13:34:30;15.65;;;6.43;;
77876;SDS011;67251;50.844;7.978;2023-07-02T13:36:55;20.38;;;7.10;;
77876;SDS011;67251;50.844;7.978;2023-07-02T13:39:20;16.23;;;7.05;;
77876;SDS011;67251;50.844;7.978;2023-07-02T13:41:46;17.90;;;6.68;;
77876;SDS011;67251;50.844;7.978;2023-07-02T13:44:11;17.65;;;8.02;;
77876;SDS011;67251;50.844;7.978;2023-07-02T13:46:37;15.40;;;6.45;;
77876;SDS011;67251;50.844;7.978;2023-07-02T13:49:36;14.85;;;6.60;;
77876;SDS011;67251;50.844;7.978;2023-07-02T13:52:01;16.98;;;6.25;;
77876;SDS011;67251;50.844;7.978;2023-07-02T13:54:27;14.15;;;6.43;;
77876;SDS011;67251;50.844;7.978;2023-07-02T13:56:52;15.07;;;6.00;;
77876;SDS011;67251;50.844;7.978;2023-07-02T13:59:18;14.85;;;5.72;;
77876;SDS011;67251;50.844;7.978;2023-07-02T14:01:45;14.35;;;5.60;;
77876;SDS011;67251;50.844;7.978;2023-07-02T14:04:11;15.10;;;7.43;;
77876;SDS011;67251;50.844;7.978;2023-07-02T14:06:37;15.50;;;6.40;;
77876;SDS011;67251;50.844;7.978;2023-07-02T14:09:02;15.13;;;5.97;;
77876;SDS011;67251;50.844;7.978;2023-07-02T14:11:29;16.08;;;5.97;;
77876;SDS011;67251;50.844;7.978;2023-07-02T14:13:55;15.32;;;6.70;;
77876;SDS011;67251;50.844;7.978;2023-07-02T14:16:21;16.13;;;6.65;;
77876;SDS011;67251;50.844;7.978;2023-07-02T14:18:47;14.38;;;6.38;;
77876;SDS011;67251;50.844;7.978;2023-07-02T14:21:12;14.40;;;6.47;;
77876;SDS011;67251;50.844;7.978;2023-07-02T14:23:37;16.75;;;6.60;;
77876;SDS011;67251;50.844;7.978;2023-07-02T14:26:03;15.18;;;7.32;;
77876;SDS011;67251;50.844;7.978;2023-07-02T14:28:28;16.30;;;6.40;;
77876;SDS011;67251;50.844;7.978;2023-07-02T14:31:04;17.05;;;6.65;;
77876;SDS011;67251;50.844;7.978;2023-07-02T14:33:31;15.73;;;6.55;;
77876;SDS011;67251;50.844;7.978;2023-07-02T14:35:58;17.80;;;6.93;;
77876;SDS011;67251;50.844;7.978;2023-07-02T14:38:24;13.30;;;5.75;;
77876;SDS011;67251;50.844;7.978;2023-07-02T14:40:49;17.30;;;6.60;;
77876;SDS011;67251;50.844;7.978;2023-07-02T14:43:16;13.10;;;5.57;;
77876;SDS011;67251;50.844;7.978;2023-07-02T14:45:43;13.20;;;6.07;;
77876;SDS011;67251;50.844;7.978;2023-07-02T14:48:14;13.75;;;5.57;;
77876;SDS011;67251;50.844;7.978;2023-07-02T14:50:43;15.60;;;6.20;;
77876;SDS011;67251;50.844;7.978;2023-07-02T14:53:10;15.93;;;5.90;;
77876;SDS011;67251;50.844;7.978;2023-07-02T14:55:36;16.40;;;6.88;;
77876;SDS011;67251;50.844;7.978;2023-07-02T14:58:01;14.55;;;5.75;;
77876;SDS011;67251;50.844;7.978;2023-07-02T15:00:27;13.43;;;5.85;;